Terminal Aerodrome Forecast
Issued by NWS

Home | Current Version | Previous Version | Text Only | Print | Product List | Glossary Off
Versions: 1 2 3 4 5 6 7 8 9 10 11 12 13 14 15 16 17 18 19 20 21

000
FTUS43 KBIS 290800 AAA
TAFJMS
TAF AMD
KJMS 290842Z 2909/3006 16007KT 5SM BR SCT003 OVC020
      TEMPO 2909/2913 1/2SM FG OVC003
     FM291500 29008KT P6SM SCT100
     FM292100 36011KT P6SM VCSH SCT030 BKN060=

USA.gov is the U.S. government's official web portal to all federal, state and local government web resources and services.